createdAt,value
2018-04-24T08:12:08.640Z,85.58
2018-04-24T08:13:06.613Z,85.58
2018-04-24T08:14:06.589Z,85.97
2018-04-24T08:15:06.609Z,85.58
2018-04-24T08:16:06.671Z,85.97
2018-04-24T08:17:06.623Z,86.06
2018-04-24T08:18:06.633Z,86.06
2018-04-24T08:19:06.645Z,85.87
2018-04-24T08:20:06.648Z,86.25
2018-04-24T08:21:06.699Z,86.11
2018-04-24T08:22:06.679Z,86.44
2018-04-24T08:23:06.694Z,86.44
2018-04-24T08:24:06.688Z,86.06
2018-04-24T08:25:06.694Z,87.40
2018-04-24T08:26:06.713Z,86.82
2018-04-24T08:27:06.721Z,86.44
2018-04-24T08:28:06.732Z,86.35
2018-04-24T08:29:06.774Z,86.44
2018-04-24T08:30:06.752Z,86.44
2018-04-24T08:31:06.776Z,86.25
2018-04-24T08:32:06.767Z,86.35
2018-04-24T08:33:06.791Z,86.54
2018-04-24T08:34:06.823Z,86.35
2018-04-24T08:35:06.800Z,86.44
2018-04-24T08:36:06.864Z,86.16
2018-04-24T08:37:06.815Z,86.25
2018-04-24T08:38:06.823Z,86.06
2018-04-24T08:39:06.851Z,85.87
2018-04-24T08:40:06.970Z,86.16
2018-04-24T08:41:06.867Z,86.92
2018-04-24T08:42:06.914Z,87.11
2018-04-24T08:43:06.979Z,86.82
2018-04-24T08:44:06.904Z,86.54
2018-04-24T08:45:06.916Z,86.25
2018-04-24T08:46:06.900Z,86.63
2018-04-24T08:47:06.941Z,86.25
2018-04-24T08:48:06.960Z,86.25
2018-04-24T08:49:06.947Z,86.44
2018-04-24T08:50:06.990Z,86.06
2018-04-24T08:51:06.958Z,86.44
2018-04-24T08:52:06.970Z,86.63
2018-04-24T08:53:06.984Z,86.63
2018-04-24T08:54:06.996Z,86.06
2018-04-24T08:55:07.019Z,86.16
2018-04-24T08:56:07.015Z,86.06
2018-04-24T08:57:07.066Z,86.16
2018-04-24T08:58:07.024Z,85.97
2018-04-24T08:59:07.093Z,85.68
2018-04-24T09:00:07.077Z,85.77
2018-04-24T09:01:07.059Z,86.01
2018-04-24T09:02:07.104Z,85.53
2018-04-24T09:03:07.084Z,84.96
2018-04-24T09:04:07.100Z,84.77
2018-04-24T09:05:07.153Z,85.25
2018-04-24T09:06:07.114Z,84.77
2018-04-24T09:07:07.146Z,84.96
2018-04-24T09:08:07.174Z,84.58
2018-04-24T09:09:07.170Z,84.58
2018-04-24T09:10:07.182Z,84.00
2018-04-24T09:11:07.184Z,83.95
2018-04-24T09:12:07.179Z,83.76
2018-04-24T09:13:07.193Z,83.91
2018-04-24T09:14:07.275Z,84.05
2018-04-24T09:15:07.253Z,83.86
2018-04-24T09:16:07.250Z,84.05
2018-04-24T09:17:07.221Z,83.76
2018-04-24T09:18:07.325Z,83.76
2018-04-24T09:19:07.254Z,83.47
2018-04-24T09:20:07.289Z,83.18
2018-04-24T09:21:07.275Z,83.28
2018-04-24T09:22:07.300Z,83.47
2018-04-24T09:23:07.303Z,83.38
2018-04-24T09:24:07.309Z,84.58
2018-04-24T09:25:07.349Z,85.82
2018-04-24T09:26:07.326Z,86.24
2018-04-24T09:27:07.370Z,85.38
2018-04-24T09:28:07.348Z,85.00
2018-04-24T09:29:07.370Z,84.23
2018-04-24T09:30:07.371Z,84.43
2018-04-24T09:31:07.380Z,84.72
2018-04-24T09:32:07.389Z,84.43
2018-04-24T09:33:07.418Z,84.33
2018-04-24T09:34:07.418Z,84.52
2018-04-24T09:35:07.454Z,83.86
2018-04-24T09:36:07.470Z,83.47
2018-04-24T09:37:07.472Z,83.18
2018-04-24T09:38:07.457Z,82.46
2018-04-24T09:39:07.560Z,82.46
2018-04-24T09:40:07.504Z,81.89
2018-04-24T09:41:07.504Z,81.89
2018-04-24T09:42:07.524Z,80.69
2018-04-24T09:43:07.543Z,80.11
2018-04-24T09:44:07.524Z,81.41
2018-04-24T09:45:07.572Z,82.28
2018-04-24T09:46:07.553Z,82.61
2018-04-24T09:47:07.560Z,82.42
2018-04-24T09:48:07.606Z,82.90
2018-04-24T09:49:07.584Z,83.38
2018-04-24T09:50:07.620Z,83.76
2018-04-24T09:51:07.674Z,83.18
2018-04-24T09:52:07.617Z,83.18
2018-04-24T09:53:07.637Z,83.18
2018-04-24T09:54:08.215Z,83.76
2018-04-24T09:55:07.658Z,83.67
2018-04-24T09:56:07.677Z,84.52
2018-04-24T09:57:07.689Z,84.52
2018-04-24T09:58:07.772Z,84.52
2018-04-24T09:59:07.967Z,84.52
2018-04-24T10:00:07.719Z,84.52
2018-04-24T10:01:07.735Z,84.72
2018-04-24T10:02:07.783Z,84.91
2018-04-24T10:03:07.745Z,85.19
2018-04-24T10:04:07.804Z,85.19
2018-04-24T10:05:07.762Z,84.81
2018-04-24T10:06:07.820Z,84.72
2018-04-24T10:07:07.836Z,84.52
2018-04-24T10:08:07.808Z,84.33
2018-04-24T10:09:07.817Z,84.23
2018-04-24T10:10:07.835Z,83.57
2018-04-24T10:11:07.837Z,83.47
2018-04-24T10:12:07.841Z,83.23
2018-04-24T10:13:07.931Z,83.33
2018-04-24T10:14:07.897Z,83.28
2018-04-24T10:15:07.911Z,83.42
2018-04-24T10:16:07.907Z,83.38
2018-04-24T10:17:07.900Z,83.95
2018-04-24T10:18:07.945Z,83.70
2018-04-24T10:19:07.927Z,83.67
2018-04-24T10:20:07.976Z,83.86
2018-04-24T10:21:07.967Z,84.05
2018-04-24T10:22:07.966Z,84.43
2018-04-24T10:23:07.975Z,84.52
2018-04-24T10:24:08.001Z,84.05
2018-04-24T10:25:08.012Z,83.51
2018-04-24T10:26:08.014Z,83.80
2018-04-24T10:27:08.024Z,83.33
2018-04-24T10:28:08.061Z,83.23
2018-04-24T10:29:08.197Z,83.23
2018-04-24T10:30:08.058Z,83.13
2018-04-24T10:31:08.104Z,83.33
2018-04-24T10:32:08.070Z,83.33
2018-04-24T10:33:08.083Z,83.67
2018-04-24T10:34:08.137Z,83.28
2018-04-24T10:35:08.187Z,83.86
2018-04-24T10:36:08.127Z,84.72
2018-04-24T10:37:08.135Z,84.52
2018-04-24T10:38:08.138Z,84.91
2018-04-24T10:39:08.147Z,84.62
2018-04-24T10:40:08.163Z,84.43
2018-04-24T10:41:08.220Z,84.56
2018-04-24T10:42:08.184Z,84.19
2018-04-24T10:43:08.195Z,83.70
2018-04-24T10:44:08.204Z,83.42
2018-04-24T10:45:08.213Z,83.33
2018-04-24T10:46:08.251Z,83.70
2018-04-24T10:47:08.247Z,83.33
2018-04-24T10:48:08.291Z,83.42
2018-04-24T10:49:08.263Z,83.99
2018-04-24T10:50:08.274Z,83.80
2018-04-24T10:51:08.277Z,84.09
2018-04-24T10:52:08.345Z,84.43
2018-04-24T10:53:08.356Z,84.52
2018-04-24T10:54:08.339Z,84.62
2018-04-24T10:55:08.343Z,84.14
2018-04-24T10:56:08.334Z,84.52
2018-04-24T10:57:08.405Z,84.28
2018-04-24T10:58:08.374Z,83.70
2018-04-24T10:59:08.386Z,83.99
2018-04-24T11:00:08.404Z,83.90
2018-04-24T11:01:08.402Z,83.51
2018-04-24T11:02:08.412Z,83.90
2018-04-24T11:03:08.430Z,83.99
2018-04-24T11:04:08.433Z,83.90
2018-04-24T11:05:08.497Z,84.09
2018-04-24T11:06:08.457Z,83.99
2018-04-24T11:07:08.471Z,84.09
2018-04-24T11:08:08.478Z,83.70
2018-04-24T11:09:08.491Z,83.08
2018-04-24T11:10:08.508Z,82.60
2018-04-24T11:11:08.513Z,82.60
2018-04-24T11:12:08.528Z,81.65
2018-04-24T11:13:08.542Z,82.03
2018-04-24T11:14:08.541Z,82.12
2018-04-24T11:15:08.619Z,82.60
2018-04-24T11:16:08.600Z,82.22
2018-04-24T11:17:08.632Z,82.51
2018-04-24T11:18:08.602Z,81.74
2018-04-24T11:19:08.605Z,81.84
2018-04-24T11:20:08.648Z,82.03
2018-04-24T11:21:08.622Z,82.12
2018-04-24T11:22:08.645Z,82.22
2018-04-24T11:23:08.671Z,82.51
2018-04-24T11:24:08.663Z,82.22
2018-04-24T11:25:08.683Z,82.22
2018-04-24T11:26:08.720Z,82.22
2018-04-24T11:27:08.707Z,82.70
2018-04-24T11:28:08.710Z,82.84
2018-04-24T11:29:08.751Z,83.42
2018-04-24T11:30:08.729Z,83.42
2018-04-24T11:31:08.743Z,83.46
2018-04-24T11:32:08.758Z,83.51
2018-04-24T11:33:08.769Z,83.46
2018-04-24T11:34:08.780Z,82.60
2018-04-24T11:35:08.878Z,82.03
2018-04-24T11:36:08.803Z,81.68
2018-04-24T11:37:08.814Z,81.45
2018-04-24T11:38:08.902Z,81.74
2018-04-24T11:39:08.859Z,81.59
2018-04-24T11:40:08.894Z,80.73
2018-04-24T11:41:08.891Z,81.02
2018-04-24T11:42:08.885Z,81.02
2018-04-24T11:43:08.933Z,81.02
2018-04-24T11:44:08.912Z,81.30
2018-04-24T11:45:08.940Z,80.73
2018-04-24T11:46:08.934Z,81.16
2018-04-24T11:47:08.942Z,81.74
2018-04-24T11:48:08.952Z,82.51
2018-04-24T11:49:08.968Z,83.17
2018-04-24T11:50:08.962Z,83.17
2018-04-24T11:51:08.980Z,82.22
2018-04-24T11:52:08.989Z,82.65
2018-04-24T11:53:09.029Z,83.27
2018-04-24T11:54:09.014Z,82.89
2018-04-24T11:55:09.026Z,82.60
2018-04-24T11:56:09.162Z,82.51
2018-04-24T11:57:09.122Z,82.79
2018-04-24T11:58:09.058Z,82.22
2018-04-24T11:59:09.063Z,81.59
2018-04-24T12:00:09.087Z,81.30
2018-04-24T12:01:09.145Z,81.02
2018-04-24T12:02:09.099Z,81.59
2018-04-24T12:03:09.136Z,81.49
2018-04-24T12:04:09.130Z,81.68
2018-04-24T12:05:09.169Z,81.49
2018-04-24T12:06:09.170Z,81.16
2018-04-24T12:07:09.175Z,81.84
2018-04-24T12:08:09.190Z,82.03
2018-04-24T12:09:09.205Z,82.03
2018-04-24T12:10:09.200Z,82.03
2018-04-24T12:11:09.216Z,81.40
2018-04-24T12:12:09.282Z,81.02
2018-04-24T12:13:09.238Z,81.40
2018-04-24T12:14:09.322Z,81.74
2018-04-24T12:15:09.283Z,82.60
2018-04-24T12:16:09.284Z,82.51
2018-04-24T12:17:09.298Z,82.22
2018-04-24T12:18:09.283Z,82.60
2018-04-24T12:19:09.316Z,83.08
2018-04-24T12:20:09.333Z,83.37
2018-04-24T12:21:09.333Z,83.75
2018-04-24T12:22:09.333Z,83.56
2018-04-24T12:23:09.378Z,83.37
2018-04-24T12:24:09.435Z,83.17
2018-04-24T12:25:09.413Z,83.27
2018-04-24T12:26:09.432Z,82.79
2018-04-24T12:27:09.413Z,82.79
2018-04-24T12:28:09.417Z,82.60
2018-04-24T12:29:09.431Z,82.17
2018-04-24T12:30:09.449Z,80.77
2018-04-24T12:31:09.447Z,80.10
2018-04-24T12:32:09.444Z,79.96
2018-04-24T12:33:09.467Z,80.25
2018-04-24T12:34:09.480Z,81.11
2018-04-24T12:35:09.546Z,80.63
2018-04-24T12:36:09.568Z,80.54
2018-04-24T12:37:09.509Z,80.58
2018-04-24T12:38:09.549Z,80.73
2018-04-24T12:39:09.539Z,80.35
2018-04-24T12:40:09.600Z,80.73
2018-04-24T12:41:09.603Z,81.59
2018-04-24T12:42:09.609Z,80.77
2018-04-24T12:43:09.593Z,80.19
2018-04-24T12:44:09.620Z,80.00
2018-04-24T12:45:09.698Z,80.38
2018-04-24T12:46:09.627Z,80.63
2018-04-24T12:47:09.665Z,80.06
2018-04-24T12:48:09.660Z,80.35
2018-04-24T12:49:09.696Z,81.02
2018-04-24T12:50:09.685Z,80.54
2018-04-24T12:51:09.677Z,80.44
2018-04-24T12:52:09.740Z,81.02
2018-04-24T12:53:09.753Z,80.73
2018-04-24T12:54:09.722Z,81.02
2018-04-24T12:55:09.753Z,81.15
2018-04-24T12:56:09.754Z,80.77
2018-04-24T12:57:09.761Z,80.58
2018-04-24T12:58:09.795Z,80.87
2018-04-24T12:59:09.868Z,81.11
2018-04-24T13:00:09.800Z,81.15
2018-04-24T13:01:09.827Z,81.15
2018-04-24T13:02:09.822Z,80.77
2018-04-24T13:03:09.831Z,80.87
2018-04-24T13:04:09.840Z,80.87
2018-04-24T13:05:09.878Z,80.96
2018-04-24T13:06:09.876Z,80.35
2018-04-24T13:07:09.910Z,80.96
2018-04-24T13:08:09.911Z,80.87
2018-04-24T13:09:09.914Z,80.92
2018-04-24T13:10:09.941Z,81.34
2018-04-24T13:11:09.932Z,81.25
2018-04-24T13:12:09.938Z,81.02
2018-04-24T13:13:09.956Z,81.40
2018-04-24T13:14:09.970Z,81.88
2018-04-24T13:15:09.987Z,82.26
2018-04-24T13:16:10.013Z,81.68
2018-04-24T13:17:10.026Z,81.30
2018-04-24T13:18:10.019Z,81.49
2018-04-24T13:19:10.091Z,81.30
2018-04-24T13:20:10.059Z,81.59
2018-04-24T13:21:10.065Z,81.40
2018-04-24T13:22:10.058Z,81.59
2018-04-24T13:23:10.089Z,82.26
2018-04-24T13:24:10.088Z,82.45
2018-04-24T13:25:10.092Z,82.64
2018-04-24T13:26:10.132Z,82.79
2018-04-24T13:27:10.138Z,82.83
2018-04-24T13:28:10.167Z,82.83
2018-04-24T13:29:10.189Z,82.54
2018-04-24T13:30:10.192Z,82.93
2018-04-24T13:31:10.243Z,83.50
2018-04-24T13:32:10.192Z,82.83
2018-04-24T13:33:10.205Z,82.64
2018-04-24T13:34:10.385Z,82.83
2018-04-24T13:35:10.276Z,83.22
2018-04-24T13:36:10.273Z,82.83
2018-04-24T13:37:10.248Z,83.03
2018-04-24T13:38:10.252Z,83.31
2018-04-24T13:39:10.276Z,83.22
2018-04-24T13:40:10.275Z,83.31
2018-04-24T13:41:10.335Z,83.50
2018-04-24T13:43:10.316Z,83.40
2018-04-24T13:44:10.338Z,83.60
2018-04-24T13:45:10.335Z,83.60
2018-04-24T13:46:10.425Z,83.79
2018-04-24T13:47:10.357Z,83.40
2018-04-24T13:48:10.370Z,83.31
2018-04-24T13:49:10.416Z,83.31
2018-04-24T13:50:10.425Z,83.31
2018-04-24T13:51:10.408Z,83.31
2018-04-24T13:52:10.449Z,83.79
2018-04-24T13:53:10.427Z,83.75
2018-04-24T13:54:10.436Z,83.98
2018-04-24T13:55:10.447Z,84.17
2018-04-24T13:56:10.508Z,84.46
2018-04-24T13:57:10.485Z,84.17
2018-04-24T13:58:10.485Z,83.79
2018-04-24T13:59:10.505Z,84.08
2018-04-24T14:00:10.515Z,84.36
2018-04-24T14:01:10.512Z,83.79
2018-04-24T14:02:10.545Z,84.08
2018-04-24T14:03:10.552Z,83.60
2018-04-24T14:04:10.591Z,83.79
2018-04-24T14:05:10.585Z,83.79
2018-04-24T14:06:10.580Z,84.17
2018-04-24T14:07:10.625Z,84.08
2018-04-24T14:08:10.616Z,84.17
2018-04-24T14:09:10.605Z,83.98
2018-04-24T14:10:10.616Z,84.17
2018-04-24T14:11:10.639Z,84.23
2018-04-24T14:12:10.718Z,84.08
2018-04-24T14:13:10.677Z,83.89
2018-04-24T14:14:10.668Z,83.69
2018-04-24T14:15:10.684Z,83.89
2018-04-24T14:16:10.703Z,83.60
2018-04-24T14:17:10.767Z,83.79
2018-04-24T14:18:10.767Z,83.89
2018-04-24T14:19:10.760Z,83.60
2018-04-24T14:20:10.790Z,83.40
2018-04-24T14:21:10.737Z,83.31
2018-04-24T14:22:10.784Z,84.08
2018-04-24T14:23:10.790Z,84.17
2018-04-24T14:24:10.901Z,84.17
2018-04-24T14:25:10.795Z,83.89
2018-04-24T14:26:10.803Z,83.50
2018-04-24T14:27:10.815Z,83.12
2018-04-24T14:28:10.863Z,83.40
2018-04-24T14:29:10.926Z,82.97
2018-04-24T14:30:10.859Z,82.49
2018-04-24T14:31:10.894Z,83.03
2018-04-24T14:32:10.883Z,82.87
2018-04-24T14:33:10.888Z,83.16
2018-04-24T14:34:10.910Z,82.78
2018-04-24T14:35:10.938Z,83.06
2018-04-24T14:36:10.921Z,83.45
2018-04-24T14:37:10.986Z,83.16
2018-04-24T14:38:10.988Z,83.06
2018-04-24T14:39:10.963Z,82.87
2018-04-24T14:40:10.988Z,82.68
2018-04-24T14:41:10.991Z,82.87
2018-04-24T14:42:11.038Z,82.68
2018-04-24T14:43:11.005Z,82.87
2018-04-24T14:44:11.029Z,82.87
2018-04-24T14:45:11.021Z,83.16
2018-04-24T14:46:11.056Z,83.06
2018-04-24T14:47:11.056Z,82.68
2018-04-24T14:48:11.085Z,82.30
2018-04-24T14:49:11.074Z,82.59
2018-04-24T14:50:11.111Z,82.30
2018-04-24T14:52:11.103Z,81.82
2018-04-24T14:53:11.183Z,82.30
2018-04-24T14:54:11.151Z,82.01
2018-04-24T14:55:11.170Z,82.01
2018-04-24T14:56:11.165Z,81.73
2018-04-24T14:57:11.182Z,81.92
2018-04-24T14:58:11.208Z,81.82
2018-04-24T14:59:11.209Z,81.82
2018-04-24T15:00:11.216Z,81.44
2018-04-24T15:01:11.211Z,81.34
2018-04-24T15:02:11.265Z,81.63
2018-04-24T15:03:11.263Z,81.59
2018-04-24T15:04:11.299Z,81.11
2018-04-24T15:05:11.260Z,81.68
2018-04-24T15:06:11.295Z,82.74
2018-04-24T15:07:11.289Z,82.35
2018-04-24T15:08:11.306Z,82.64
2018-04-24T15:09:11.308Z,82.74
2018-04-24T15:10:11.316Z,82.83
2018-04-24T15:11:11.343Z,82.26
2018-04-24T15:12:11.614Z,82.74
2018-04-24T15:13:11.353Z,82.64
2018-04-24T15:14:11.463Z,82.83
2018-04-24T15:15:11.465Z,83.03
2018-04-24T15:16:11.387Z,83.50
2018-04-24T15:17:11.494Z,83.12
2018-04-24T15:18:11.447Z,82.45
2018-04-24T15:19:11.437Z,82.59
2018-04-24T15:20:11.455Z,82.49
2018-04-24T15:21:11.463Z,82.78
2018-04-24T15:22:11.466Z,82.30
2018-04-24T15:23:11.503Z,82.26
2018-04-24T15:24:11.483Z,82.93
2018-04-24T15:25:11.586Z,82.49
2018-04-24T15:26:11.532Z,82.83
2018-04-24T15:27:11.657Z,82.30
2018-04-24T15:28:11.598Z,82.74
2018-04-24T15:29:11.539Z,82.93
2018-04-24T15:30:11.567Z,82.26
2018-04-24T15:31:11.669Z,82.68
2018-04-24T15:32:11.593Z,82.40
2018-04-24T15:33:11.641Z,82.30
2018-04-24T15:34:11.619Z,82.11
2018-04-24T15:35:11.632Z,82.40
2018-04-24T15:36:11.656Z,81.54
2018-04-24T15:37:11.640Z,81.54
2018-04-24T15:38:11.677Z,81.73
2018-04-24T15:39:11.668Z,81.92
2018-04-24T15:40:11.682Z,81.54
2018-04-24T15:41:11.683Z,81.44
2018-04-24T15:42:11.722Z,80.87
2018-04-24T15:43:11.723Z,80.77
2018-04-24T15:44:11.725Z,81.05
2018-04-24T15:45:11.738Z,80.87
2018-04-24T15:46:11.772Z,80.48
2018-04-24T15:47:11.848Z,80.96
2018-04-24T15:48:11.773Z,80.19
2018-04-24T15:49:11.784Z,80.77
2018-04-24T15:50:11.792Z,81.15
2018-04-24T15:51:11.809Z,80.77
2018-04-24T15:52:11.809Z,80.58
2018-04-24T15:53:11.859Z,80.58
2018-04-24T15:54:11.881Z,81.15
2018-04-24T15:55:11.866Z,81.15
2018-04-24T15:56:11.885Z,80.58
2018-04-24T15:57:11.883Z,81.05
2018-04-24T15:58:11.951Z,80.38
2018-04-24T15:59:11.925Z,80.19
2018-04-24T16:00:11.921Z,80.33
2018-04-24T16:01:11.913Z,79.08
2018-04-24T16:02:11.973Z,78.61
2018-04-24T16:03:11.989Z,78.89
2018-04-24T16:04:11.996Z,79.18
2018-04-24T16:05:11.966Z,78.70
2018-04-24T16:06:11.976Z,79.08
2018-04-24T16:07:12.009Z,78.70
2018-04-24T16:08:12.015Z,78.99
2018-04-24T16:09:12.074Z,79.18
2018-04-24T16:10:12.034Z,78.70
2018-04-24T16:11:12.100Z,79.08
2018-04-24T16:12:12.167Z,78.61
2018-04-24T16:13:12.061Z,78.42
2018-04-24T16:14:12.169Z,78.70
2018-04-24T16:15:12.116Z,78.32
2018-04-24T16:16:12.382Z,77.94
2018-04-24T16:17:12.263Z,78.42
2018-04-24T16:18:12.142Z,77.84
2018-04-24T16:19:12.742Z,78.42
2018-04-24T16:20:12.159Z,77.94
2018-04-24T16:21:12.181Z,78.22
2018-04-24T16:22:12.188Z,78.51
2018-04-24T16:23:12.202Z,78.32
2018-04-24T16:24:12.220Z,77.75
2018-04-24T16:25:12.252Z,78.47
2018-04-24T16:26:12.766Z,78.76
2018-04-24T16:27:12.292Z,78.76
2018-04-24T16:28:12.267Z,79.43
2018-04-24T16:29:12.279Z,79.62
2018-04-24T16:30:12.386Z,79.14
2018-04-24T16:31:12.350Z,79.24
2018-04-24T16:32:12.303Z,79.33
2018-04-24T16:33:12.359Z,79.33
2018-04-24T16:34:12.307Z,79.62
2018-04-24T16:35:12.372Z,79.72
2018-04-24T16:36:12.373Z,79.57
2018-04-24T16:37:12.401Z,79.75
2018-04-24T16:38:12.448Z,79.57
2018-04-24T16:39:12.450Z,79.75
2018-04-24T16:40:12.488Z,79.66
2018-04-24T16:41:12.435Z,79.66
2018-04-24T16:42:12.419Z,79.85
2018-04-24T16:43:12.488Z,79.37
2018-04-24T16:44:12.457Z,79.57
2018-04-24T16:45:12.446Z,78.89
2018-04-24T16:46:12.469Z,79.08
2018-04-24T16:47:12.472Z,79.37
2018-04-24T16:48:12.566Z,79.57
2018-04-24T16:49:12.535Z,79.57
2018-04-24T16:50:12.531Z,80.43
2018-04-24T16:51:12.584Z,80.29
2018-04-24T16:52:12.559Z,80.29
2018-04-24T16:53:12.552Z,80.77
2018-04-24T16:54:12.568Z,80.87
2018-04-24T16:55:12.560Z,81.25
2018-04-24T16:56:12.615Z,80.77
2018-04-24T16:57:12.593Z,80.58
2018-04-24T16:58:12.696Z,80.96
2018-04-24T16:59:12.644Z,80.87
2018-04-24T17:00:12.658Z,80.77
2018-04-24T17:01:12.647Z,80.58
2018-04-24T17:03:12.724Z,80.67
2018-04-24T17:04:12.680Z,80.96
2018-04-24T17:05:12.688Z,81.15
2018-04-24T17:06:12.718Z,80.87
2018-04-24T17:07:12.739Z,81.10
2018-04-24T17:08:12.815Z,80.90
2018-04-24T17:09:12.747Z,80.58
2018-04-24T17:10:12.778Z,81.05
2018-04-24T17:11:12.775Z,81.25
2018-04-24T17:12:12.779Z,81.44
2018-04-24T17:13:12.791Z,81.44
2018-04-24T17:14:12.812Z,81.63
2018-04-24T17:15:12.830Z,81.05
2018-04-24T17:16:12.835Z,80.48
2018-04-24T17:17:12.834Z,80.96
2018-04-24T17:18:12.970Z,81.54
2018-04-24T17:19:12.888Z,80.96
2018-04-24T17:20:12.877Z,80.96
2018-04-24T17:21:13.041Z,81.15
2018-04-24T17:22:12.899Z,81.34
2018-04-24T17:23:12.964Z,80.67
2018-04-24T17:24:12.967Z,80.52
2018-04-24T17:25:12.947Z,80.48
2018-04-24T17:26:12.959Z,80.58
2018-04-24T17:27:12.982Z,80.87
2018-04-24T17:28:12.979Z,80.29
2018-04-24T17:29:13.159Z,81.15
2018-04-24T17:30:13.010Z,81.34
2018-04-24T17:31:12.996Z,81.63
2018-04-24T17:32:13.081Z,81.15
2018-04-24T17:33:13.026Z,80.87
2018-04-24T17:34:13.034Z,81.54
2018-04-24T17:35:13.054Z,82.01
2018-04-24T17:36:13.075Z,81.82
2018-04-24T17:37:13.124Z,81.54
2018-04-24T17:38:13.125Z,81.34
2018-04-24T17:39:13.118Z,81.54
2018-04-24T17:40:13.110Z,81.44
2018-04-24T17:41:13.174Z,81.34
2018-04-24T17:42:13.129Z,81.44
2018-04-24T17:43:13.157Z,81.54
2018-04-24T17:44:13.194Z,81.44
2018-04-24T17:45:13.179Z,81.34
2018-04-24T17:46:13.214Z,82.01
2018-04-24T17:47:13.252Z,81.54
2018-04-24T17:48:13.207Z,81.54
2018-04-24T17:49:13.217Z,81.54
2018-04-24T17:50:13.258Z,82.30
2018-04-24T17:51:13.241Z,82.68
2018-04-24T17:52:13.255Z,82.49
2018-04-24T17:53:13.311Z,82.49
2018-04-24T17:54:13.298Z,82.78
2018-04-24T17:55:13.297Z,82.20
2018-04-24T17:56:13.405Z,82.87
2018-04-24T17:57:13.351Z,82.87
2018-04-24T17:58:13.319Z,82.87
2018-04-24T17:59:13.342Z,82.68
2018-04-24T18:00:13.387Z,82.49
2018-04-24T18:01:13.364Z,82.87
2018-04-24T18:02:13.414Z,83.26
2018-04-24T18:03:13.413Z,83.64
2018-04-24T18:04:13.462Z,83.60
2018-04-24T18:05:13.416Z,83.64
2018-04-24T18:06:13.523Z,83.83
2018-04-24T18:07:13.431Z,84.02
2018-04-24T18:08:13.450Z,83.73
2018-04-24T18:09:13.477Z,84.12
2018-04-24T18:10:13.458Z,83.83
2018-04-24T18:12:13.530Z,84.27
2018-04-24T18:13:13.500Z,83.64
2018-04-24T18:14:13.696Z,84.31
2018-04-24T18:15:13.547Z,83.89
2018-04-24T18:16:13.548Z,84.50
2018-04-24T18:17:13.574Z,84.12
2018-04-24T18:18:13.642Z,84.22
2018-04-24T18:19:13.592Z,84.46
2018-04-24T18:20:13.649Z,84.17
2018-04-24T18:21:13.648Z,84.55
2018-04-24T18:22:13.624Z,84.46
2018-04-24T18:23:13.631Z,84.55
2018-04-24T18:24:13.695Z,84.65
2018-04-24T18:25:13.644Z,84.75
2018-04-24T18:26:13.708Z,84.75
2018-04-24T18:27:13.723Z,85.13
2018-04-24T18:28:13.680Z,85.13
2018-04-24T18:29:13.713Z,84.94
2018-04-24T18:30:13.732Z,85.32
2018-04-24T18:31:13.751Z,84.94
2018-04-24T18:32:13.752Z,84.75
2018-04-24T18:33:13.872Z,84.65
2018-04-24T18:34:13.863Z,84.84
2018-04-24T18:35:13.844Z,84.65
2018-04-24T18:36:13.799Z,84.65
2018-04-24T18:37:13.788Z,84.27
2018-04-24T18:38:13.896Z,84.84
2018-04-24T18:39:13.797Z,85.03
2018-04-24T18:40:13.932Z,85.03
2018-04-24T18:41:13.895Z,84.65
2018-04-24T18:42:13.847Z,84.65
2018-04-24T18:43:13.868Z,84.17
2018-04-24T18:44:13.869Z,85.32
2018-04-24T18:45:13.871Z,84.94
2018-04-24T18:46:13.887Z,84.94
2018-04-24T18:47:13.895Z,84.75
2018-04-24T18:48:13.923Z,84.65
2018-04-24T18:49:13.946Z,85.03
2018-04-24T18:50:13.966Z,85.03
2018-04-24T18:51:13.963Z,84.94
2018-04-24T18:52:13.952Z,85.13
2018-04-24T18:53:14.045Z,85.03
2018-04-24T18:54:14.004Z,84.75
2018-04-24T18:55:14.011Z,85.03
2018-04-24T18:56:14.135Z,85.03
2018-04-24T18:57:14.129Z,85.41
2018-04-24T18:59:14.093Z,85.51
2018-04-24T19:00:14.082Z,85.61
2018-04-24T19:01:14.199Z,85.80
2018-04-24T19:02:14.087Z,85.99
2018-04-24T19:03:14.160Z,85.89
2018-04-24T19:04:14.130Z,86.18
2018-04-24T19:05:14.275Z,85.99
2018-04-24T19:06:14.116Z,86.47
2018-04-24T19:07:14.164Z,86.28
2018-04-24T19:08:14.188Z,86.28
2018-04-24T19:09:14.161Z,86.85
2018-04-24T19:10:14.290Z,86.66
2018-04-24T19:11:14.170Z,86.37
2018-04-24T19:12:14.188Z,87.43
2018-04-24T19:13:14.214Z,87.90
2018-04-24T19:14:14.203Z,87.90
2018-04-24T19:15:14.222Z,88.09
2018-04-24T19:16:14.269Z,88.67
2018-04-24T19:17:14.248Z,88.00
2018-04-24T19:18:14.299Z,88.38
2018-04-24T19:19:14.291Z,88.57
2018-04-24T19:20:14.275Z,87.71
2018-04-24T19:21:14.278Z,88.19
2018-04-24T19:22:14.348Z,87.48
2018-04-24T19:23:14.304Z,87.48
2018-04-24T19:24:14.315Z,87.86
2018-04-24T19:25:14.391Z,87.76
2018-04-24T19:26:14.366Z,87.95
2018-04-24T19:27:14.366Z,87.76
2018-04-24T19:28:14.383Z,87.29
2018-04-24T19:29:14.419Z,87.29
2018-04-24T19:30:14.388Z,86.33
2018-04-24T19:31:14.479Z,87.38
2018-04-24T19:32:14.459Z,87.29
2018-04-24T19:33:14.427Z,87.38
2018-04-24T19:34:14.425Z,87.09
2018-04-24T19:35:14.462Z,87.38
2018-04-24T19:36:14.499Z,87.09
2018-04-24T19:37:14.502Z,87.38
2018-04-24T19:38:14.513Z,86.71
2018-04-24T19:39:14.575Z,86.61
2018-04-24T19:40:14.568Z,86.80
2018-04-24T19:41:14.552Z,86.61
2018-04-24T19:42:14.582Z,86.61
2018-04-24T19:43:14.757Z,86.90
2018-04-24T19:44:14.552Z,86.23
2018-04-24T19:45:14.610Z,86.23
2018-04-24T19:46:14.561Z,86.43
2018-04-24T19:47:14.631Z,86.90
2018-04-24T19:48:14.629Z,86.80
2018-04-24T19:49:14.656Z,86.61
2018-04-24T19:50:14.610Z,87.00
2018-04-24T19:51:14.678Z,87.00
2018-04-24T19:52:14.729Z,87.48
2018-04-24T19:53:14.658Z,87.48
2018-04-24T19:54:14.817Z,87.38
2018-04-24T19:55:14.743Z,87.29
2018-04-24T19:56:14.697Z,87.76
2018-04-24T19:57:14.687Z,87.29
2018-04-24T19:58:14.718Z,87.86
2018-04-24T19:59:14.707Z,87.95
2018-04-24T20:00:14.734Z,88.43
2018-04-24T20:01:14.747Z,88.24
2018-04-24T20:02:14.755Z,88.15
2018-04-24T20:03:14.770Z,88.72
2018-04-24T20:04:14.828Z,88.72
2018-04-24T20:05:14.848Z,88.62
2018-04-24T20:06:14.855Z,88.43
2018-04-24T20:07:14.821Z,88.43
2018-04-24T20:08:14.831Z,88.34
2018-04-24T20:09:14.865Z,88.43
2018-04-24T20:10:14.882Z,88.34
2018-04-24T20:11:14.900Z,88.81
2018-04-24T20:12:14.901Z,88.72
2018-04-24T20:13:14.865Z,89.10
2018-04-24T20:14:14.897Z,88.34
2018-04-24T20:15:14.928Z,88.43
2018-04-24T20:16:14.935Z,88.34
2018-04-24T20:17:14.932Z,88.24
2018-04-24T20:18:15.024Z,88.62
2018-04-24T20:19:14.953Z,89.39
2018-04-24T20:20:14.957Z,89.39
2018-04-24T20:21:14.974Z,89.01
2018-04-24T20:22:14.975Z,88.62
2018-04-24T20:23:15.135Z,89.29
2018-04-24T20:24:15.076Z,89.20
2018-04-24T20:25:15.098Z,88.91
2018-04-24T20:26:15.007Z,89.20
2018-04-24T20:27:15.051Z,88.81
2018-04-24T20:28:15.028Z,88.81
2018-04-24T20:29:15.073Z,89.01
2018-04-24T20:30:15.086Z,89.10
2018-04-24T20:31:15.168Z,89.29
2018-04-24T20:32:15.119Z,88.77
2018-04-24T20:33:15.082Z,88.91
2018-04-24T20:34:15.162Z,89.10
2018-04-24T20:35:15.110Z,88.91
2018-04-24T20:36:15.133Z,88.72
2018-04-24T20:37:15.154Z,89.39
2018-04-24T20:38:15.214Z,89.48
2018-04-24T20:39:15.183Z,89.20
2018-04-24T20:40:15.209Z,88.91
2018-04-24T20:41:15.242Z,88.72
2018-04-24T20:42:15.196Z,89.10
2018-04-24T20:43:15.237Z,88.91
2018-04-24T20:44:15.210Z,88.91
2018-04-24T20:45:15.317Z,89.01
2018-04-24T20:46:15.221Z,88.72
2018-04-24T20:47:15.232Z,88.72
2018-04-24T20:48:15.340Z,88.81
2018-04-24T20:49:15.287Z,88.53
2018-04-24T20:50:15.287Z,88.43
2018-04-24T20:51:15.298Z,88.43
2018-04-24T20:52:15.292Z,88.24
2018-04-24T20:53:15.388Z,88.43
2018-04-24T20:54:15.336Z,88.15
2018-04-24T20:55:15.377Z,88.24
2018-04-24T20:56:15.366Z,87.76
2018-04-24T20:57:15.339Z,87.57
2018-04-24T20:58:15.370Z,88.05
2018-04-24T20:59:15.533Z,88.05
2018-04-24T21:00:15.419Z,88.24
2018-04-24T21:01:15.385Z,88.05
2018-04-24T21:02:15.407Z,87.86
2018-04-24T21:03:15.448Z,87.95
2018-04-24T21:04:15.469Z,88.15
2018-04-24T21:05:15.459Z,87.76
2018-04-24T21:06:15.520Z,88.43
2018-04-24T21:07:15.533Z,88.24
2018-04-24T21:08:15.480Z,88.24
2018-04-24T21:09:15.519Z,88.53